Terminal Aerodrome Forecast
Issued by NWS Sterling, VA

Current Version | Previous Version | Graphics & Text | Print | Product List | Glossary On
Versions: 1 2 3 4 5 6 7 8 9 10 11 12 13 14 15 16 17 18
000
FTUS41 KLWX 290532
TAFMRB
TAF
KMRB 290532Z 2906/3006 27009KT P6SM FEW060
     FM291100 VRB03KT P6SM FEW200
     FM291800 21006KT P6SM SCT120
     FM292300 17005KT P6SM BKN080=

USA.gov is the U.S. government's official web portal to all federal, state and local government web resources and services.